This is the latest recevied weather packets stored in our database for station/object DL2DHM-13. If no packets are shown the sender has not sent any weather packets the latest 10 day(s).
| Time | Temp. | Humidity | Pressure | Rain* | Wind** | Luminosity | Snow |
|---|---|---|---|---|---|---|---|
| 1777312534 | 13.89° C | 51% | 1020.4 hPa | 0 mm | - | 39 W/m² | - |
| 1777312234 | 13.89° C | 52% | 1020.4 hPa | 0 mm | - | 44 W/m² | - |
| 1777307433 | 15° C | 50% | 1020.5 hPa | 0 mm | - | 176 W/m² | - |
| 1777306525 | 15.56° C | 51% | 1020.6 hPa | 0 mm | - | 243 W/m² | - |
| 1777306227 | 15.56° C | 49% | 1020.6 hPa | 0 mm | - | 272 W/m² | - |
| 1777305925 | 15.56° C | 50% | 1020.6 hPa | 0 mm | - | 343 W/m² | - |
| 1777303522 | 16.67° C | 45% | 1020.7 hPa | 0 mm | - | 512 W/m² | - |
| 1777301419 | 16.67° C | 46% | 1020.9 hPa | 0 mm | - | 656 W/m² | - |
| 1777299315 | 16.11° C | 48% | 1021.1 hPa | 0 mm | - | 596 W/m² | - |
| 1777299013 | 16.67° C | 50% | 1021.2 hPa | 0 mm | - | 605 W/m² | - |
| 1777294804 | 16.11° C | 57% | 1021.9 hPa | 0 mm | - | 621 W/m² | - |
| 1777294204 | 16.11° C | 55% | 1022 hPa | 0 mm | - | 568 W/m² | - |
| 1777293904 | 15.56° C | 51% | 1022 hPa | 0 mm | - | 536 W/m² | - |
| 1777293001 | 15.56° C | 52% | 1022 hPa | 0 mm | - | 717 W/m² | - |
| 1777292401 | 15.56° C | 51% | 1022.1 hPa | 0 mm | - | 642 W/m² | - |
| 1777291258 | 15° C | 50% | 1022.1 hPa | 0 mm | - | 694 W/m² | - |
| 1777290365 | 15° C | 50% | 1022.2 hPa | 0 mm | - | 568 W/m² | - |
| 1777288251 | 15° C | 53% | 1022.5 hPa | 0 mm | - | 557 W/m² | - |
| 1777287651 | 15° C | 52% | 1022.7 hPa | 0 mm | - | 613 W/m² | - |
| 1777287049 | 14.44° C | 54% | 1022.6 hPa | 0 mm | - | 689 W/m² | - |
| 1777284342 | 13.89° C | 61% | 1023 hPa | 0 mm | - | 605 W/m² | - |
| 1777284040 | 13.89° C | 66% | 1023 hPa | 0 mm | - | 561 W/m² | - |
| 1777282539 | 12.22° C | 69% | 1023.2 hPa | 0 mm | - | 531 W/m² | - |
| 1777279825 | 11.11° C | 64% | 1023.6 hPa | 0 mm | - | 329 W/m² | - |
| 1777279525 | 11.11° C | 63% | 1023.6 hPa | 0 mm | - | 374 W/m² | - |
* Rain latest hour (hover to see other rain measurements)
** Current wind speed in m/s (hover to see current wind gust speed)